Time;durP1;ratioP1;P1;durP2;ratioP2;P2;SDS_P1;SDS_P2;PMS_P1;PMS_P2;Temp;Humidity;BMP_temperature;BMP_pressure;BME280_temperature;BME280_humidity;BME280_pressure;Samples;Min_cycle;Max_cycle;Signal;HPM_P1;HPM_P2
2022/06/08 00:00:10;;;;;;;1.73;1.00;;;;;;;27.49;43.15;101196.22;4181452;28;19958;-63
2022/06/08 00:02:13;;;;;;;3.08;1.05;;;;;;;27.48;42.95;101196.53;4157083;28;20456;-63
2022/06/08 00:04:17;;;;;;;1.98;1.13;;;;;;;27.50;43.07;101188.63;4166833;28;20420;-63
2022/06/08 00:06:19;;;;;;;1.83;1.00;;;;;;;27.47;43.20;101190.06;4168449;28;20570;-62
2022/06/08 00:08:20;;;;;;;2.17;1.20;;;;;;;27.35;43.38;101173.81;4164282;28;20290;-63
2022/06/08 00:10:22;;;;;;;2.63;1.00;;;;;;;27.47;43.16;101200.47;4165154;28;20080;-63
2022/06/08 00:12:26;;;;;;;4.18;1.33;;;;;;;27.47;43.16;101200.47;4167483;28;20473;-63
2022/06/08 00:14:27;;;;;;;2.33;1.17;;;;;;;27.47;43.39;101200.47;4178843;28;20045;-63
2022/06/08 00:16:29;;;;;;;3.60;1.35;;;;;;;27.46;43.03;101193.22;4184187;28;20255;-63
2022/06/08 00:18:30;;;;;;;1.35;0.90;;;;;;;27.46;43.16;101198.84;4164349;28;20461;-63
2022/06/08 00:20:32;;;;;;;2.95;1.15;;;;;;;27.41;43.16;101196.97;4164202;28;20041;-64
2022/06/08 00:22:34;;;;;;;2.13;1.48;;;;;;;27.46;43.43;101198.84;4165149;28;20480;-64
2022/06/08 00:24:35;;;;;;;2.95;1.02;;;;;;;27.47;43.28;101200.47;4164848;28;20041;-64
2022/06/08 00:26:37;;;;;;;4.65;1.00;;;;;;;27.44;43.18;101201.13;4164756;28;20046;-64
2022/06/08 00:28:38;;;;;;;5.03;1.20;;;;;;;27.38;43.27;101194.78;4166030;28;20477;-65
2022/06/08 00:30:43;;;;;;;2.03;1.00;;;;;;;27.44;43.19;101207.56;4165208;28;20087;-64
2022/06/08 00:32:44;;;;;;;;;;;;;;;27.43;43.27;101221.94;4164787;28;20041;-64
2022/06/08 00:34:45;;;;;;;1.73;1.02;;;;;;;27.48;43.20;101219.00;4166587;28;20015;-64
2022/06/08 00:36:47;;;;;;;1.55;1.10;;;;;;;27.46;43.10;101221.31;4164460;28;20152;-64
2022/06/08 00:38:48;;;;;;;4.72;1.20;;;;;;;27.47;43.30;101217.34;4165195;28;20095;-64
2022/06/08 00:40:58;;;;;;;1.73;1.05;;;;;;;27.46;43.09;101218.50;4167431;28;20107;-63
2022/06/08 00:43:02;;;;;;;2.90;1.40;;;;;;;27.47;43.21;101217.34;4174948;28;20368;-64
2022/06/08 00:45:14;;;;;;;2.03;1.38;;;;;;;27.44;43.09;101215.16;4174703;28;20527;-64
2022/06/08 00:47:25;;;;;;;1.35;1.17;;;;;;;27.44;43.19;101206.72;4164711;28;20037;-64
2022/06/08 00:49:41;;;;;;;3.65;1.40;;;;;;;27.46;43.53;101221.31;4164867;28;20477;-63
2022/06/08 00:51:46;;;;;;;5.53;1.20;;;;;;;27.47;43.30;101218.19;4164867;28;20543;-63
2022/06/08 00:53:55;;;;;;;3.95;1.48;;;;;;;27.45;43.32;101214.88;4165231;28;20523;-64
2022/06/08 00:56:01;;;;;;;2.45;1.33;;;;;;;27.47;43.27;101222.97;4165218;28;20096;-63
2022/06/08 00:58:06;;;;;;;3.50;1.73;;;;;;;27.46;43.14;101221.31;4164698;28;20550;-63
2022/06/08 01:00:12;;;;;;;5.10;1.30;;;;;;;27.46;43.35;101222.16;4165189;28;20479;-63
2022/06/08 01:02:14;;;;;;;3.33;1.02;;;;;;;27.46;43.51;101221.31;4165971;28;20168;-64
2022/06/08 01:04:18;;;;;;;2.67;1.20;;;;;;;27.45;43.17;101216.84;4172334;28;20087;-63
2022/06/08 01:06:24;;;;;;;1.63;0.80;;;;;;;27.38;43.16;101210.84;4171702;28;20037;-64
2022/06/08 01:08:47;;;;;;;2.88;1.10;;;;;;;27.39;43.32;101216.13;4164259;28;20080;-63
2022/06/08 01:10:54;;;;;;;3.28;1.20;;;;;;;27.43;43.60;101217.16;4170253;28;20034;-63
2022/06/08 01:13:01;;;;;;;7.50;1.48;;;;;;;27.43;43.55;101216.31;4176000;28;20076;-63
2022/06/08 01:15:05;;;;;;;2.47;1.00;;;;;;;27.43;43.48;101219.13;4171269;28;20543;-63
2022/06/08 01:17:16;;;;;;;2.95;1.08;;;;;;;27.40;43.40;101212.19;4170355;28;20076;-63
2022/06/08 01:19:17;;;;;;;1.85;1.23;;;;;;;27.44;43.25;101217.97;4168565;28;20091;-63
2022/06/08 01:21:18;;;;;;;3.60;1.20;;;;;;;27.45;43.45;101225.28;4168794;28;20041;-63
2022/06/08 01:23:21;;;;;;;3.60;1.20;;;;;;;27.45;43.47;101237.34;4169370;28;20102;-64
2022/06/08 01:25:36;;;;;;;3.65;1.20;;;;;;;27.45;43.62;101244.97;4167899;28;20072;-63
2022/06/08 01:28:02;;;;;;;3.33;1.10;;;;;;;27.46;43.36;101246.59;4166091;28;20552;-64
2022/06/08 01:30:11;;;;;;;3.85;1.75;;;;;;;27.47;43.39;101245.44;4168214;28;20033;-63
2022/06/08 01:32:32;;;;;;;1.45;1.00;;;;;;;27.46;43.35;101244.63;4165837;28;20029;-63
2022/06/08 01:35:17;;;;;;;2.75;1.33;;;;;;;27.44;43.62;101248.88;4164791;28;20041;-63
2022/06/08 01:37:42;;;;;;;4.15;1.25;;;;;;;27.42;43.32;101242.78;4164684;28;20053;-63
2022/06/08 01:40:20;;;;;;;1.98;1.10;;;;;;;27.44;43.21;101254.50;4166155;28;20103;-63
2022/06/08 01:42:46;;;;;;;2.40;1.17;;;;;;;27.45;43.47;101259.00;4165052;28;20088;-62
2022/06/08 01:47:33;;;;;;;2.65;1.15;;;;;;;27.49;43.34;101274.91;4164052;28;19916;-63
2022/06/08 01:49:40;;;;;;;3.40;1.35;;;;;;;27.47;43.51;101268.75;4163987;28;20041;-64
2022/06/08 01:52:06;;;;;;;2.33;1.00;;;;;;;27.43;43.55;101272.53;4164483;28;20068;-64
2022/06/08 01:54:07;;;;;;;;;;;;;;;27.41;43.56;101274.84;4165139;28;20104;-63
2022/06/08 01:56:29;;;;;;;1.73;1.20;;;;;;;27.44;43.53;101274.19;4164402;28;19913;-63
2022/06/08 01:58:49;;;;;;;2.33;1.08;;;;;;;27.42;43.60;101260.47;4164093;28;20478;-62
2022/06/08 02:01:17;;;;;;;1.75;1.15;;;;;;;27.41;43.53;101258.81;4146896;28;20479;-63
2022/06/08 02:03:49;;;;;;;2.90;1.08;;;;;;;27.39;43.56;101258.28;4164068;28;20038;-63
2022/06/08 02:06:01;;;;;;;2.80;1.08;;;;;;;27.39;43.88;101249.84;4163575;28;20092;-63
2022/06/08 02:08:27;;;;;;;3.22;1.05;;;;;;;27.38;43.85;101258.59;4163139;28;20041;-63
2022/06/08 02:10:45;;;;;;;3.47;1.00;;;;;;;27.39;43.86;101251.81;4163598;28;20033;-63
2022/06/08 02:12:53;;;;;;;2.67;1.20;;;;;;;27.38;43.71;101251.00;4164214;28;20427;-63
2022/06/08 02:15:01;;;;;;;2.47;1.10;;;;;;;27.33;44.00;101251.13;4163438;28;20499;-62
2022/06/08 02:17:37;;;;;;;2.30;1.02;;;;;;;27.35;43.91;101266.53;4163214;28;20104;-63
2022/06/08 02:19:48;;;;;;;1.00;0.95;;;;;;;27.38;43.53;101275.47;4159478;28;20049;-64
2022/06/08 02:22:00;;;;;;;1.52;0.90;;;;;;;27.38;43.71;101283.91;4166269;28;20060;-63
2022/06/08 02:24:17;;;;;;;2.00;1.10;;;;;;;27.33;43.78;101266.00;4166453;28;20037;-62
2022/06/08 02:26:30;;;;;;;1.20;1.10;;;;;;;27.35;43.77;101277.78;4166669;28;20085;-62
2022/06/08 02:28:58;;;;;;;1.77;0.93;;;;;;;27.33;43.74;101280.06;4166176;28;20095;-62
2022/06/08 02:31:15;;;;;;;1.35;1.10;;;;;;;27.38;43.88;101281.09;4156950;28;20084;-62
2022/06/08 02:35:50;;;;;;;1.65;1.10;;;;;;;27.30;43.71;101274.22;4167099;28;20530;-62
2022/06/08 02:38:00;;;;;;;2.95;1.20;;;;;;;27.32;43.64;101267.16;4166319;28;20049;-63
2022/06/08 02:40:19;;;;;;;1.40;0.90;;;;;;;27.34;43.82;101269.63;4166273;28;20119;-63
2022/06/08 02:42:25;;;;;;;2.22;1.20;;;;;;;27.36;43.69;101267.38;4166452;28;20076;-63
2022/06/08 02:44:29;;;;;;;3.03;1.20;;;;;;;27.35;43.72;101269.34;4168365;28;20480;-63
2022/06/08 02:46:54;;;;;;;2.58;1.00;;;;;;;27.34;43.65;101267.66;4177760;28;20029;-62
2022/06/08 02:48:56;;;;;;;2.95;1.30;;;;;;;27.35;43.69;101263.72;4165880;28;20056;-63
2022/06/08 02:50:58;;;;;;;1.00;0.82;;;;;;;27.34;44.03;101253.59;4173758;28;20044;-63
2022/06/08 02:53:31;;;;;;;3.05;1.00;;;;;;;27.31;43.92;101243.03;4182849;28;20049;-63
2022/06/08 02:55:48;;;;;;;9.48;1.98;;;;;;;27.35;43.92;101241.25;4182979;28;20078;-62
2022/06/08 02:58:02;;;;;;;1.42;1.05;;;;;;;27.34;43.89;101228.31;4170182;28;20095;-63
2022/06/08 03:00:18;;;;;;;1.55;1.00;;;;;;;27.29;43.68;101222.81;4176287;28;20481;-63
2022/06/08 03:02:25;;;;;;;2.60;1.13;;;;;;;27.35;43.98;101220.72;4178845;28;20041;-63
2022/06/08 03:04:36;;;;;;;8.52;1.92;;;;;;;27.35;44.12;101221.56;4166506;28;20103;-63
2022/06/08 03:06:45;;;;;;;3.63;1.10;;;;;;;27.27;43.76;101205.47;4182134;28;20037;-63
2022/06/08 03:08:53;;;;;;;6.20;1.52;;;;;;;27.35;44.07;101217.91;4180463;28;20049;-63
2022/06/08 03:10:57;;;;;;;3.88;0.90;;;;;;;27.35;44.01;101221.56;4174283;28;20084;-63
2022/06/08 03:13:07;;;;;;;4.28;1.10;;;;;;;27.33;44.06;101212.63;4177187;28;20090;-63
2022/06/08 03:15:10;;;;;;;6.03;1.40;;;;;;;27.35;44.13;101220.72;4182386;28;20037;-63
2022/06/08 03:17:21;;;;;;;5.47;1.17;;;;;;;27.34;44.22;101217.06;4168700;28;20049;-64
2022/06/08 03:19:24;;;;;;;4.85;1.20;;;;;;;27.35;43.93;101215.94;4165676;28;20053;-63
2022/06/08 03:21:27;;;;;;;7.75;1.42;;;;;;;27.34;44.28;101222.69;4170921;28;20040;-63
2022/06/08 03:23:29;;;;;;;4.95;1.40;;;;;;;27.35;43.91;101224.38;4182157;28;20415;-63
2022/06/08 03:25:30;;;;;;;4.75;1.63;;;;;;;27.34;44.05;101219.88;4168920;28;20095;-63
2022/06/08 03:27:32;;;;;;;4.60;2.00;;;;;;;27.35;44.33;101215.09;4164958;28;20092;-63
2022/06/08 03:29:33;;;;;;;7.68;2.05;;;;;;;27.35;44.34;101215.09;4180000;28;20071;-64
2022/06/08 03:31:38;;;;;;;5.20;2.20;;;;;;;27.33;44.44;101215.41;4181250;28;20114;-63
2022/06/08 03:33:42;;;;;;;5.03;2.08;;;;;;;27.34;44.07;101219.06;4180949;28;20102;-63
2022/06/08 03:35:46;;;;;;;10.27;2.22;;;;;;;26.26;44.24;101042.97;4176204;28;20033;-63
2022/06/08 03:37:48;;;;;;;7.53;2.17;;;;;;;27.35;44.00;101215.09;4177006;28;20067;-63
2022/06/08 03:39:49;;;;;;;9.98;2.30;;;;;;;27.33;44.38;101212.63;4165764;28;20033;-63
2022/06/08 03:41:53;;;;;;;6.50;2.10;;;;;;;27.33;44.41;101212.63;4167562;28;20087;-63
2022/06/08 03:43:55;;;;;;;6.27;2.10;;;;;;;27.35;44.13;101215.09;4170852;28;20087;-63
2022/06/08 03:46:02;;;;;;;5.53;2.33;;;;;;;27.32;44.17;101210.97;4163487;28;20282;-64
2022/06/08 03:48:05;;;;;;;8.73;2.40;;;;;;;27.33;44.08;101201.38;4173863;28;20037;-64
2022/06/08 03:50:12;;;;;;;6.30;2.22;;;;;;;27.34;44.38;101208.66;4175047;28;20048;-64
2022/06/08 03:52:22;;;;;;;7.55;2.42;;;;;;;27.33;44.37;101201.38;4181049;28;20435;-63
2022/06/08 03:54:31;;;;;;;6.85;2.63;;;;;;;27.32;44.37;101205.34;4181684;28;20044;-64
2022/06/08 03:56:35;;;;;;;6.50;2.70;;;;;;;27.35;44.37;101201.03;4181493;28;20036;-64
2022/06/08 03:58:36;;;;;;;4.63;2.67;;;;;;;27.33;44.27;101201.38;4180917;28;20033;-64
2022/06/08 04:00:38;;;;;;;5.88;2.53;;;;;;;27.33;44.51;101201.38;4181610;28;20431;-64
2022/06/08 04:02:44;;;;;;;11.88;2.53;;;;;;;27.30;44.33;101190.75;4181675;28;20106;-64
2022/06/08 04:04:45;;;;;;;3.88;2.25;;;;;;;27.27;44.31;101174.56;4172541;28;20095;-64
2022/06/08 04:06:48;;;;;;;5.50;2.45;;;;;;;27.34;44.57;101180.53;4164591;28;20404;-64
2022/06/08 04:08:53;;;;;;;6.78;2.45;;;;;;;27.34;44.43;101180.53;4164749;28;20481;-64
2022/06/08 04:10:54;;;;;;;6.82;2.50;;;;;;;27.36;44.57;101183.06;4164405;28;20047;-63
2022/06/08 04:12:55;;;;;;;7.82;2.35;;;;;;;27.35;44.56;101187.84;4168180;28;20037;-64
2022/06/08 04:14:57;;;;;;;8.35;2.45;;;;;;;27.33;44.33;101173.28;4164843;28;20115;-63
2022/06/08 04:16:58;;;;;;;4.45;2.30;;;;;;;27.35;44.58;101176.59;4177655;28;20036;-63
2022/06/08 04:19:00;;;;;;;6.55;2.50;;;;;;;27.35;44.51;101171.00;4183254;28;20438;-63
2022/06/08 04:21:05;;;;;;;7.05;2.35;;;;;;;27.36;44.58;101171.81;4181252;28;20427;-63
2022/06/08 04:23:08;;;;;;;5.15;2.40;;;;;;;27.37;44.65;101173.47;4167526;28;20037;-63
2022/06/08 04:25:09;;;;;;;7.28;2.38;;;;;;;27.38;44.45;101166.69;4164862;28;20509;-63
2022/06/08 04:27:11;;;;;;;6.82;2.67;;;;;;;27.38;44.48;101169.50;4164292;28;20037;-63
2022/06/08 04:29:13;;;;;;;3.17;2.10;;;;;;;27.38;44.77;101163.06;4165505;28;20546;-62
2022/06/08 04:31:16;;;;;;;9.45;2.70;;;;;;;27.39;44.64;101165.53;4164888;28;20033;-63
2022/06/08 04:33:17;;;;;;;3.60;2.20;;;;;;;27.39;44.75;101164.72;4164773;28;20096;-64
2022/06/08 04:35:21;;;;;;;6.70;2.10;;;;;;;27.39;44.74;101159.09;4178925;28;20476;-64
2022/06/08 04:37:27;;;;;;;4.63;1.67;;;;;;;27.37;44.34;101156.59;4180712;28;20049;-64
2022/06/08 04:39:28;;;;;;;4.80;2.08;;;;;;;27.41;44.52;101156.81;4180759;28;20460;-64
2022/06/08 04:41:30;;;;;;;7.78;2.08;;;;;;;27.31;44.80;101144.69;4181138;28;20464;-64
2022/06/08 04:43:35;;;;;;;4.32;2.13;;;;;;;27.39;44.49;101151.50;4173797;28;20041;-64
2022/06/08 04:45:37;;;;;;;;;;;;;;;27.39;44.69;101145.03;4164724;28;20099;-63
2022/06/08 04:47:38;;;;;;;5.10;1.80;;;;;;;27.42;44.57;101141.59;4164084;28;19943;-63
2022/06/08 04:49:41;;;;;;;4.95;1.67;;;;;;;27.44;44.51;101142.09;4164294;28;20087;-64
2022/06/08 04:51:43;;;;;;;7.68;2.25;;;;;;;27.44;44.70;101147.72;4164922;28;20017;-64
2022/06/08 04:53:47;;;;;;;4.03;2.08;;;;;;;27.41;44.59;101139.94;4164889;28;20103;-64
2022/06/08 04:55:48;;;;;;;4.93;2.20;;;;;;;27.43;44.39;101143.25;4164413;28;20041;-63
2022/06/08 04:57:49;;;;;;;4.75;1.85;;;;;;;27.42;44.61;101142.44;4163705;28;20448;-63
2022/06/08 04:59:52;;;;;;;5.72;2.00;;;;;;;27.39;44.50;101139.41;4161006;28;20041;-64
2022/06/08 05:01:56;;;;;;;3.72;1.90;;;;;;;27.38;44.12;101140.56;4164793;28;20428;-64
2022/06/08 05:04:00;;;;;;;4.60;2.10;;;;;;;27.42;44.55;101144.41;4164759;28;20029;-63
2022/06/08 05:06:02;;;;;;;4.10;2.05;;;;;;;27.42;44.64;101142.44;4164295;28;20350;-64
2022/06/08 05:08:11;;;;;;;5.65;1.80;;;;;;;27.32;44.46;101123.84;4163916;28;20054;-63
2022/06/08 05:10:17;;;;;;;6.55;2.05;;;;;;;27.42;44.68;101134.00;4164021;28;20103;-64
2022/06/08 05:12:18;;;;;;;4.35;1.60;;;;;;;27.43;44.74;101129.19;4159526;28;20037;-63
2022/06/08 05:14:19;;;;;;;3.95;1.77;;;;;;;27.42;44.75;101133.16;4163989;28;20172;-63
2022/06/08 05:16:21;;;;;;;3.38;1.70;;;;;;;27.43;44.33;101143.25;4162876;28;20111;-63
2022/06/08 05:18:24;;;;;;;4.18;2.00;;;;;;;27.42;44.53;101138.78;4163308;28;20431;-64
2022/06/08 05:20:26;;;;;;;6.50;2.30;;;;;;;27.34;44.75;101124.34;4163817;28;20469;-64
2022/06/08 05:22:28;;;;;;;4.43;1.83;;;;;;;27.38;44.78;101124.53;4164078;28;20099;-64
2022/06/08 05:24:29;;;;;;;2.67;1.50;;;;;;;27.42;44.71;101119.13;4163841;28;20122;-64
2022/06/08 05:26:31;;;;;;;2.92;1.92;;;;;;;27.41;44.69;101111.84;4164147;28;20033;-63
2022/06/08 05:28:32;;;;;;;7.10;2.00;;;;;;;27.40;44.76;101110.16;4163411;28;20050;-64
2022/06/08 05:30:35;;;;;;;2.20;1.55;;;;;;;27.41;44.83;101117.47;4167782;28;20079;-63
2022/06/08 05:32:37;;;;;;;4.85;1.75;;;;;;;27.41;44.96;101117.47;4163793;28;20087;-63
2022/06/08 05:34:39;;;;;;;6.40;1.92;;;;;;;27.41;44.66;101109.84;4164250;28;20037;-63
2022/06/08 05:36:43;;;;;;;4.85;1.45;;;;;;;27.42;44.75;101116.31;4163505;28;21151;-63
2022/06/08 05:38:44;;;;;;;2.57;1.63;;;;;;;27.41;44.69;101112.66;4179684;28;20037;-63
2022/06/08 05:40:45;;;;;;;7.85;1.80;;;;;;;27.40;44.76;101102.59;4180432;28;20040;-64
2022/06/08 05:42:49;;;;;;;3.25;1.75;;;;;;;27.41;44.88;101111.84;4181039;28;20029;-64
2022/06/08 05:44:51;;;;;;;4.00;1.80;;;;;;;27.41;44.69;101111.84;4180291;28;20036;-63
2022/06/08 05:46:53;;;;;;;4.10;1.55;;;;;;;27.41;44.74;101104.25;4180313;28;20530;-63
2022/06/08 05:48:54;;;;;;;2.83;1.23;;;;;;;27.40;44.87;101099.78;4163300;28;20041;-63
2022/06/08 05:50:56;;;;;;;1.60;1.15;;;;;;;27.41;44.86;101097.78;4164153;28;20033;-64
2022/06/08 05:52:57;;;;;;;3.22;1.23;;;;;;;27.42;44.68;101096.63;4162897;28;20054;-64
2022/06/08 05:54:59;;;;;;;3.60;1.48;;;;;;;27.32;44.81;101078.91;4172996;28;20048;-63
2022/06/08 05:57:00;;;;;;;2.55;1.52;;;;;;;27.42;44.58;101088.19;4182952;28;20041;-63
2022/06/08 05:59:03;;;;;;;1.85;1.55;;;;;;;27.38;44.69;101090.81;4183397;28;20472;-63
2022/06/08 06:01:05;;;;;;;5.95;1.42;;;;;;;27.41;44.96;101086.56;4183311;28;20114;-63
2022/06/08 06:03:08;;;;;;;2.35;1.42;;;;;;;27.42;44.90;101085.41;4183935;28;20024;-63
2022/06/08 06:05:14;;;;;;;3.17;2.00;;;;;;;27.37;44.67;101083.53;4182707;28;20447;-64
2022/06/08 06:07:16;;;;;;;1.60;1.50;;;;;;;27.42;44.75;101082.59;4183030;28;20033;-64
2022/06/08 06:09:19;;;;;;;1.98;1.23;;;;;;;27.42;44.81;101085.41;4183343;28;20083;-63
2022/06/08 06:11:21;;;;;;;2.70;1.35;;;;;;;27.38;44.83;101084.38;4176063;28;20061;-64
2022/06/08 06:13:22;;;;;;;2.03;1.20;;;;;;;27.41;44.68;101084.56;4166717;28;20045;-63
2022/06/08 06:15:25;;;;;;;3.65;1.50;;;;;;;27.41;44.77;101080.94;4166784;28;20099;-64
2022/06/08 06:17:27;;;;;;;1.85;1.40;;;;;;;27.41;44.80;101078.94;4166501;28;20906;-63
2022/06/08 06:19:31;;;;;;;2.70;1.33;;;;;;;27.42;44.82;101079.78;4166080;28;20084;-64
2022/06/08 06:21:33;;;;;;;2.85;1.33;;;;;;;27.41;44.75;101073.31;4166530;28;20045;-63
2022/06/08 06:23:35;;;;;;;3.97;1.98;;;;;;;27.41;45.08;101066.88;4168049;28;20037;-63
2022/06/08 06:25:36;;;;;;;3.30;2.03;;;;;;;27.42;44.81;101085.41;4183043;28;20090;-63
2022/06/08 06:27:37;;;;;;;2.33;1.35;;;;;;;27.43;44.94;101075.81;4183189;28;20373;-64
2022/06/08 06:29:39;;;;;;;4.03;1.50;;;;;;;27.41;45.17;101073.31;4182419;28;20041;-64
2022/06/08 06:31:50;;;;;;;3.67;1.58;;;;;;;27.43;44.96;101073.00;4182644;28;20091;-63
2022/06/08 06:33:52;;;;;;;2.42;1.42;;;;;;;27.42;44.83;101074.16;4159354;28;20095;-65
2022/06/08 06:35:53;;;;;;;2.17;1.30;;;;;;;27.42;45.04;101076.97;4171276;28;20037;-63
2022/06/08 06:37:55;;;;;;;2.08;1.30;;;;;;;27.43;44.86;101070.19;4181049;28;20036;-64
2022/06/08 06:39:57;;;;;;;3.70;1.42;;;;;;;27.39;44.80;101060.75;4175423;28;20041;-64
2022/06/08 06:41:59;;;;;;;2.42;1.23;;;;;;;27.43;44.87;101067.38;4166095;28;20037;-64
2022/06/08 06:44:02;;;;;;;2.15;1.10;;;;;;;27.42;44.79;101062.91;4172398;28;20041;-64
2022/06/08 06:46:03;;;;;;;1.92;1.40;;;;;;;27.42;44.73;101057.28;4181796;28;20159;-63
2022/06/08 06:48:05;;;;;;;2.85;1.25;;;;;;;26.40;44.94;100897.06;4181741;28;20091;-63
2022/06/08 06:50:09;;;;;;;2.88;1.35;;;;;;;27.43;44.85;101073.00;4166649;28;20049;-63
2022/06/08 06:52:12;;;;;;;2.22;1.48;;;;;;;27.41;45.18;101078.13;4173231;28;20070;-63
2022/06/08 06:54:16;;;;;;;2.45;1.25;;;;;;;27.43;45.08;101064.56;4182273;28;20090;-63
2022/06/08 06:56:17;;;;;;;1.60;1.23;;;;;;;27.42;44.95;101069.34;4173547;28;20361;-64
2022/06/08 06:58:19;;;;;;;2.72;1.20;;;;;;;27.43;45.11;101064.56;4165361;28;20046;-63
2022/06/08 07:00:21;;;;;;;3.67;1.27;;;;;;;27.39;44.89;101052.31;4165848;28;20447;-64
2022/06/08 07:02:22;;;;;;;1.48;1.25;;;;;;;27.43;44.81;101064.56;4165729;28;20045;-63
2022/06/08 07:04:24;;;;;;;3.30;1.65;;;;;;;27.41;45.13;101062.09;4164758;28;20042;-63
2022/06/08 07:06:25;;;;;;;2.90;1.50;;;;;;;27.43;44.88;101058.94;4164290;28;20389;-63
2022/06/08 07:08:27;;;;;;;2.13;1.40;;;;;;;27.35;45.26;101054.91;4147325;28;20053;-63
2022/06/08 07:10:28;;;;;;;1.50;1.33;;;;;;;27.34;45.33;101062.53;4148114;28;20444;-63
2022/06/08 07:12:30;;;;;;;1.58;1.10;;;;;;;27.42;45.28;101062.91;4164516;28;20045;-64
2022/06/08 07:14:34;;;;;;;3.10;1.33;;;;;;;27.43;45.16;101064.56;4165991;28;20053;-64
2022/06/08 07:16:35;;;;;;;3.90;1.63;;;;;;;27.43;44.94;101059.78;4166225;28;20030;-63
2022/06/08 07:18:37;;;;;;;2.97;1.30;;;;;;;27.43;45.15;101054.16;4165624;28;20088;-64
2022/06/08 07:20:38;;;;;;;1.70;1.20;;;;;;;27.44;45.23;101060.59;4164944;28;20099;-64
2022/06/08 07:22:40;;;;;;;1.80;1.13;;;;;;;27.44;45.00;101054.97;4166165;28;20436;-64
2022/06/08 07:24:41;;;;;;;2.05;1.20;;;;;;;27.44;45.10;101049.34;4164882;28;20923;-63
2022/06/08 07:26:42;;;;;;;2.58;1.15;;;;;;;27.43;45.22;101054.16;4151554;28;20432;-63
2022/06/08 07:28:44;;;;;;;1.77;1.17;;;;;;;27.43;45.38;101050.50;4151972;28;20037;-63
2022/06/08 07:30:48;;;;;;;3.40;1.10;;;;;;;27.42;45.03;101051.66;4163608;28;20041;-64
2022/06/08 07:32:50;;;;;;;3.60;1.20;;;;;;;27.42;45.29;101049.69;4154394;28;20107;-64
2022/06/08 07:34:54;;;;;;;2.30;1.23;;;;;;;27.41;45.11;101055.63;4152328;28;20050;-63
2022/06/08 07:36:55;;;;;;;3.28;2.15;;;;;;;27.43;45.07;101053.31;4161759;28;20111;-64
2022/06/08 07:38:57;;;;;;;2.88;1.00;;;;;;;27.43;45.01;101047.69;4163827;28;20535;-64
2022/06/08 07:40:58;;;;;;;1.50;1.20;;;;;;;27.41;45.31;101044.41;4163957;28;20049;-63
2022/06/08 07:43:02;;;;;;;2.00;1.15;;;;;;;27.43;45.06;101042.06;4155138;28;20107;-64
2022/06/08 07:45:09;;;;;;;1.88;1.20;;;;;;;27.43;45.17;101048.53;4163593;28;20037;-63
2022/06/08 07:47:11;;;;;;;2.65;1.23;;;;;;;27.43;45.37;101047.69;4161057;28;20046;-63
2022/06/08 07:51:37;;;;;;;1.30;1.20;;;;;;;27.45;44.95;101040.63;4153080;28;20099;-63
2022/06/08 07:53:41;;;;;;;2.35;1.40;;;;;;;27.44;45.26;101038.94;4149723;28;20096;-63
2022/06/08 07:55:43;;;;;;;4.45;1.42;;;;;;;27.44;45.27;101038.94;4158308;28;20099;-64
2022/06/08 07:57:47;;;;;;;1.73;1.33;;;;;;;27.45;45.33;101042.59;4151156;28;20456;-63
2022/06/08 07:59:49;;;;;;;1.65;1.30;;;;;;;27.35;45.34;101022.06;4152290;28;20541;-63
2022/06/08 08:01:52;;;;;;;1.90;1.17;;;;;;;27.44;45.20;101040.91;4160522;28;20108;-63
2022/06/08 08:03:53;;;;;;;2.63;1.63;;;;;;;27.39;45.21;101030.66;4148370;28;20041;-64
2022/06/08 08:05:55;;;;;;;1.73;1.15;;;;;;;27.41;45.39;101033.16;4149026;28;20543;-64
2022/06/08 08:07:56;;;;;;;1.27;1.08;;;;;;;27.43;45.02;101042.91;4161117;28;20033;-64
2022/06/08 08:09:58;;;;;;;1.90;1.20;;;;;;;27.43;45.22;101030.84;4179962;28;20056;-63
2022/06/08 08:12:03;;;;;;;3.13;1.13;;;;;;;27.43;45.16;101028.03;4173351;28;20435;-64
2022/06/08 08:14:05;;;;;;;1.75;1.20;;;;;;;27.43;45.39;101033.66;4171635;28;20029;-64
2022/06/08 08:16:06;;;;;;;2.50;1.50;;;;;;;27.43;45.37;101033.66;4179595;28;20036;-64
2022/06/08 08:18:08;;;;;;;1.73;1.20;;;;;;;27.42;45.45;101023.56;4179188;28;20091;-63
2022/06/08 08:20:13;;;;;;;1.73;1.10;;;;;;;27.43;45.23;101028.03;4181384;28;20095;-64
2022/06/08 08:22:15;;;;;;;;;;;;;;;27.40;45.16;101031.47;4180333;28;20037;-63
2022/06/08 08:24:17;;;;;;;1.92;1.27;;;;;;;27.45;45.16;101015.31;4181716;28;19916;-64
2022/06/08 08:26:19;;;;;;;1.08;0.90;;;;;;;27.46;45.22;101024.59;4179423;28;20094;-63
2022/06/08 08:28:20;;;;;;;1.30;1.10;;;;;;;27.45;45.19;101025.75;4173080;28;20044;-64
2022/06/08 08:30:25;;;;;;;2.00;1.30;;;;;;;27.44;45.24;101021.25;4176347;28;20046;-64
2022/06/08 08:32:26;;;;;;;1.70;1.30;;;;;;;27.44;45.55;101032.50;4167791;28;20049;-64
2022/06/08 08:34:28;;;;;;;1.83;1.13;;;;;;;27.42;45.15;101026.38;4180816;28;20087;-64
2022/06/08 08:36:32;;;;;;;2.65;1.30;;;;;;;27.43;45.37;101031.66;4178619;28;20106;-64
2022/06/08 08:38:34;;;;;;;2.92;1.33;;;;;;;27.43;45.21;101030.84;4171334;28;20033;-63
2022/06/08 08:40:57;;;;;;;3.47;1.20;;;;;;;27.42;45.15;101034.81;4169052;28;20045;-64
2022/06/08 08:42:59;;;;;;;1.35;1.02;;;;;;;27.43;45.32;101028.03;4162249;28;20493;-64
2022/06/08 08:45:14;;;;;;;2.75;1.15;;;;;;;27.41;45.64;101022.75;4164050;28;20049;-64
2022/06/08 08:47:46;;;;;;;3.65;1.20;;;;;;;27.40;45.59;101031.47;4146473;28;20586;-64
2022/06/08 08:49:56;;;;;;;1.30;0.98;;;;;;;27.42;45.29;101032.81;4175317;28;20044;-63
2022/06/08 08:51:59;;;;;;;1.50;1.10;;;;;;;27.42;45.43;101032.81;4165047;28;20733;-63
2022/06/08 08:54:12;;;;;;;1.90;1.00;;;;;;;27.41;45.36;101025.56;4165902;28;20041;-63
2022/06/08 08:56:33;;;;;;;2.15;0.98;;;;;;;27.40;45.37;101025.84;4164800;28;20465;-63
2022/06/08 08:58:42;;;;;;;2.25;1.10;;;;;;;27.41;45.29;101027.53;4179244;28;20037;-63
2022/06/08 09:00:54;;;;;;;3.10;1.13;;;;;;;27.41;45.22;101033.16;4175344;28;20435;-63
2022/06/08 09:05:19;;;;;;;1.77;1.08;;;;;;;27.42;45.37;101040.44;4172621;28;20093;-63
2022/06/08 09:07:22;;;;;;;2.17;1.15;;;;;;;27.41;45.30;101033.16;4177065;28;20045;-63
2022/06/08 09:09:30;;;;;;;1.48;1.20;;;;;;;27.41;45.64;101035.97;4167433;28;20079;-63
2022/06/08 09:11:37;;;;;;;2.17;1.17;;;;;;;27.42;45.54;101046.06;4164927;28;20118;-63
2022/06/08 09:14:07;;;;;;;2.10;0.90;;;;;;;27.39;45.48;101046.69;4173505;28;20057;-63
2022/06/08 09:16:24;;;;;;;2.95;1.10;;;;;;;27.33;45.64;101044.03;4180534;28;20118;-63
2022/06/08 09:18:33;;;;;;;2.22;1.33;;;;;;;27.41;45.39;101055.63;4177276;28;20048;-63
2022/06/08 09:20:39;;;;;;;2.13;1.10;;;;;;;27.41;45.68;101062.09;4165325;28;20092;-63
2022/06/08 09:22:47;;;;;;;1.90;1.10;;;;;;;27.41;45.23;101055.63;4161758;28;20476;-63
2022/06/08 09:24:55;;;;;;;1.90;0.98;;;;;;;27.38;45.68;101045.84;4170608;28;20075;-63
2022/06/08 09:27:12;;;;;;;3.72;1.55;;;;;;;27.38;45.66;101050.66;4180263;28;20045;-63
2022/06/08 09:29:21;;;;;;;1.67;1.30;;;;;;;27.39;45.62;101052.31;4170459;28;20366;-63
2022/06/08 09:31:25;;;;;;;1.17;0.98;;;;;;;27.41;45.90;101055.63;4166364;28;20096;-64
2022/06/08 09:33:31;;;;;;;2.75;1.42;;;;;;;27.40;45.64;101052.00;4167556;28;20119;-63
2022/06/08 09:35:39;;;;;;;1.40;0.88;;;;;;;27.41;45.53;101058.44;4173754;28;20446;-63
2022/06/08 09:37:44;;;;;;;2.08;1.00;;;;;;;27.42;45.77;101060.09;4183637;28;20041;-63
2022/06/08 09:39:45;;;;;;;1.65;1.00;;;;;;;27.41;45.49;101062.09;4174681;28;20041;-63
2022/06/08 09:41:51;;;;;;;1.23;1.13;;;;;;;27.39;45.45;101052.31;4174255;28;20435;-63
2022/06/08 09:44:27;;;;;;;1.42;1.10;;;;;;;27.40;45.53;101056.75;4183674;28;20106;-63
2022/06/08 09:52:03;;;;;;;2.75;1.10;;;;;;;27.40;45.28;101046.38;4184347;28;20536;-63
2022/06/08 09:54:32;;;;;;;1.57;0.90;;;;;;;27.40;45.25;101049.19;4167164;28;20041;-63
2022/06/08 09:56:52;;;;;;;1.83;1.08;;;;;;;27.42;45.28;101051.66;4166769;28;20123;-63
2022/06/08 09:59:14;;;;;;;1.00;0.82;;;;;;;27.43;45.46;101053.31;4167178;28;20041;-63
2022/06/08 10:01:27;;;;;;;1.45;1.20;;;;;;;27.42;45.59;101046.06;4178427;28;20048;-63
2022/06/08 10:03:49;;;;;;;1.17;1.02;;;;;;;27.42;45.41;101052.50;4171680;28;20103;-63